sensor_id;sensor_type;location;lat;lon;timestamp;pressure;altitude;pressure_sealevel;temperature;humidity
59367;BME280;45163;47.690;11.770;2024-01-11T00:00:35;93894.38;;;-7.10;100.00
59367;BME280;45163;47.690;11.770;2024-01-11T00:03:01;93893.88;;;-7.12;100.00
59367;BME280;45163;47.690;11.770;2024-01-11T00:05:27;93896.69;;;-7.17;100.00
59367;BME280;45163;47.690;11.770;2024-01-11T00:07:53;93892.00;;;-7.20;100.00
59367;BME280;45163;47.690;11.770;2024-01-11T00:10:20;93892.78;;;-7.19;100.00
59367;BME280;45163;47.690;11.770;2024-01-11T00:12:46;93894.03;;;-7.25;100.00
59367;BME280;45163;47.690;11.770;2024-01-11T00:15:12;93892.16;;;-7.25;100.00
59367;BME280;45163;47.690;11.770;2024-01-11T00:17:38;93889.84;;;-7.18;100.00
59367;BME280;45163;47.690;11.770;2024-01-11T00:20:05;93889.34;;;-7.20;100.00
59367;BME280;45163;47.690;11.770;2024-01-11T00:22:31;93892.75;;;-7.28;100.00
59367;BME280;45163;47.690;11.770;2024-01-11T00:24:58;93884.03;;;-7.20;100.00
59367;BME280;45163;47.690;11.770;2024-01-11T00:27:24;93886.81;;;-7.34;100.00
59367;BME280;45163;47.690;11.770;2024-01-11T00:29:50;93894.47;;;-7.32;100.00
59367;BME280;45163;47.690;11.770;2024-01-11T00:32:16;93888.09;;;-7.22;100.00
59367;BME280;45163;47.690;11.770;2024-01-11T00:34:42;93897.13;;;-7.23;100.00
59367;BME280;45163;47.690;11.770;2024-01-11T00:37:08;93891.97;;;-7.29;100.00
59367;BME280;45163;47.690;11.770;2024-01-11T00:39:34;93898.69;;;-7.31;100.00
59367;BME280;45163;47.690;11.770;2024-01-11T00:42:00;93894.47;;;-7.32;100.00
59367;BME280;45163;47.690;11.770;2024-01-11T00:44:25;93889.69;;;-7.13;100.00
59367;BME280;45163;47.690;11.770;2024-01-11T00:46:51;93892.34;;;-7.13;100.00
59367;BME280;45163;47.690;11.770;2024-01-11T00:49:17;93895.44;;;-7.19;100.00
59367;BME280;45163;47.690;11.770;2024-01-11T00:51:43;93897.63;;;-7.21;100.00
59367;BME280;45163;47.690;11.770;2024-01-11T00:54:09;93898.84;;;-7.28;100.00
59367;BME280;45163;47.690;11.770;2024-01-11T00:56:35;93894.94;;;-7.30;100.00
59367;BME280;45163;47.690;11.770;2024-01-11T00:59:01;93897.88;;;-7.32;100.00
59367;BME280;45163;47.690;11.770;2024-01-11T01:01:28;93899.28;;;-7.43;100.00
59367;BME280;45163;47.690;11.770;2024-01-11T01:03:54;93903.78;;;-7.52;100.00
59367;BME280;45163;47.690;11.770;2024-01-11T01:06:20;93900.63;;;-7.54;100.00
59367;BME280;45163;47.690;11.770;2024-01-11T01:08:46;93899.22;;;-7.60;100.00
59367;BME280;45163;47.690;11.770;2024-01-11T01:11:12;93902.47;;;-7.63;100.00
59367;BME280;45163;47.690;11.770;2024-01-11T01:13:38;93904.81;;;-7.62;100.00
59367;BME280;45163;47.690;11.770;2024-01-11T01:16:04;93905.47;;;-7.56;100.00
59367;BME280;45163;47.690;11.770;2024-01-11T01:18:30;93897.19;;;-7.55;100.00
59367;BME280;45163;47.690;11.770;2024-01-11T01:20:56;93898.78;;;-7.45;100.00
59367;BME280;45163;47.690;11.770;2024-01-11T01:23:22;93897.59;;;-7.30;100.00
59367;BME280;45163;47.690;11.770;2024-01-11T01:25:48;93908.47;;;-7.40;100.00
59367;BME280;45163;47.690;11.770;2024-01-11T01:28:35;93904.75;;;-7.39;100.00
59367;BME280;45163;47.690;11.770;2024-01-11T01:31:02;93903.50;;;-7.33;100.00
59367;BME280;45163;47.690;11.770;2024-01-11T01:33:28;93906.28;;;-6.81;100.00
59367;BME280;45163;47.690;11.770;2024-01-11T01:35:54;93910.19;;;-6.53;100.00
59367;BME280;45163;47.690;11.770;2024-01-11T01:38:31;93908.78;;;-6.59;100.00
59367;BME280;45163;47.690;11.770;2024-01-11T01:40:57;93917.69;;;-6.81;100.00
59367;BME280;45163;47.690;11.770;2024-01-11T01:43:23;93920.25;;;-7.07;100.00
59367;BME280;45163;47.690;11.770;2024-01-11T01:45:49;93912.16;;;-7.10;100.00
59367;BME280;45163;47.690;11.770;2024-01-11T01:48:15;93908.06;;;-7.16;100.00
59367;BME280;45163;47.690;11.770;2024-01-11T01:50:41;93911.94;;;-7.31;100.00
59367;BME280;45163;47.690;11.770;2024-01-11T01:53:08;93909.00;;;-7.21;100.00
59367;BME280;45163;47.690;11.770;2024-01-11T01:55:34;93913.97;;;-7.28;100.00
59367;BME280;45163;47.690;11.770;2024-01-11T01:58:00;93915.81;;;-7.37;100.00
59367;BME280;45163;47.690;11.770;2024-01-11T02:00:26;93917.84;;;-7.43;100.00
59367;BME280;45163;47.690;11.770;2024-01-11T02:02:55;93908.78;;;-7.42;100.00
59367;BME280;45163;47.690;11.770;2024-01-11T02:05:21;93920.47;;;-7.43;100.00
59367;BME280;45163;47.690;11.770;2024-01-11T02:07:47;93925.97;;;-7.39;100.00
59367;BME280;45163;47.690;11.770;2024-01-11T02:10:13;93925.47;;;-7.41;100.00
59367;BME280;45163;47.690;11.770;2024-01-11T02:12:39;93917.59;;;-7.64;100.00
59367;BME280;45163;47.690;11.770;2024-01-11T02:15:07;93915.09;;;-7.69;100.00
59367;BME280;45163;47.690;11.770;2024-01-11T02:17:33;93911.13;;;-7.80;100.00
59367;BME280;45163;47.690;11.770;2024-01-11T02:20:00;93916.66;;;-7.90;100.00
59367;BME280;45163;47.690;11.770;2024-01-11T02:22:30;93915.69;;;-7.94;100.00
59367;BME280;45163;47.690;11.770;2024-01-11T02:24:57;93914.66;;;-7.93;100.00
59367;BME280;45163;47.690;11.770;2024-01-11T02:27:24;93920.66;;;-8.02;100.00
59367;BME280;45163;47.690;11.770;2024-01-11T02:29:50;93913.19;;;-7.99;100.00
59367;BME280;45163;47.690;11.770;2024-01-11T02:32:16;93916.94;;;-8.00;100.00
59367;BME280;45163;47.690;11.770;2024-01-11T02:34:42;93911.81;;;-7.97;100.00
59367;BME280;45163;47.690;11.770;2024-01-11T02:37:08;93910.31;;;-7.89;100.00
59367;BME280;45163;47.690;11.770;2024-01-11T02:39:35;93921.50;;;-7.92;100.00
59367;BME280;45163;47.690;11.770;2024-01-11T02:42:01;93915.47;;;-7.84;100.00
59367;BME280;45163;47.690;11.770;2024-01-11T02:44:27;93911.72;;;-7.83;100.00
59367;BME280;45163;47.690;11.770;2024-01-11T02:46:53;93909.38;;;-7.85;100.00
59367;BME280;45163;47.690;11.770;2024-01-11T02:49:19;93906.41;;;-7.83;100.00
59367;BME280;45163;47.690;11.770;2024-01-11T02:51:45;93901.47;;;-7.76;100.00
59367;BME280;45163;47.690;11.770;2024-01-11T02:54:11;93909.53;;;-7.90;100.00
59367;BME280;45163;47.690;11.770;2024-01-11T02:56:37;93903.81;;;-8.06;100.00
59367;BME280;45163;47.690;11.770;2024-01-11T02:59:03;93904.09;;;-8.07;100.00
59367;BME280;45163;47.690;11.770;2024-01-11T03:01:29;93901.03;;;-8.00;100.00
59367;BME280;45163;47.690;11.770;2024-01-11T03:03:56;93897.44;;;-8.05;100.00
59367;BME280;45163;47.690;11.770;2024-01-11T03:06:22;93894.19;;;-8.02;100.00
59367;BME280;45163;47.690;11.770;2024-01-11T03:08:48;93892.56;;;-8.11;100.00
59367;BME280;45163;47.690;11.770;2024-01-11T03:11:15;93892.44;;;-8.06;100.00
59367;BME280;45163;47.690;11.770;2024-01-11T03:13:42;93885.56;;;-8.07;100.00
59367;BME280;45163;47.690;11.770;2024-01-11T03:16:08;93887.38;;;-8.16;100.00
59367;BME280;45163;47.690;11.770;2024-01-11T03:18:34;93887.75;;;-8.09;100.00
59367;BME280;45163;47.690;11.770;2024-01-11T03:21:00;93884.00;;;-8.08;100.00
59367;BME280;45163;47.690;11.770;2024-01-11T03:23:26;93881.19;;;-8.12;100.00
59367;BME280;45163;47.690;11.770;2024-01-11T03:25:52;93883.41;;;-8.05;100.00
59367;BME280;45163;47.690;11.770;2024-01-11T03:28:18;93880.97;;;-7.93;100.00
59367;BME280;45163;47.690;11.770;2024-01-11T03:30:44;93881.06;;;-8.07;100.00
59367;BME280;45163;47.690;11.770;2024-01-11T03:33:10;93882.78;;;-8.11;100.00
59367;BME280;45163;47.690;11.770;2024-01-11T03:35:36;93878.53;;;-8.12;100.00
59367;BME280;45163;47.690;11.770;2024-01-11T03:38:04;93874.41;;;-8.27;100.00
59367;BME280;45163;47.690;11.770;2024-01-11T03:40:31;93884.09;;;-8.22;100.00
59367;BME280;45163;47.690;11.770;2024-01-11T03:42:57;93877.06;;;-8.27;100.00
59367;BME280;45163;47.690;11.770;2024-01-11T03:45:23;93875.75;;;-8.38;100.00
59367;BME280;45163;47.690;11.770;2024-01-11T03:47:49;93870.63;;;-8.34;100.00
59367;BME280;45163;47.690;11.770;2024-01-11T03:50:15;93866.41;;;-8.44;100.00
59367;BME280;45163;47.690;11.770;2024-01-11T03:52:42;93875.84;;;-8.51;100.00
59367;BME280;45163;47.690;11.770;2024-01-11T03:55:08;93874.44;;;-8.49;100.00
59367;BME280;45163;47.690;11.770;2024-01-11T03:57:34;93879.56;;;-8.52;100.00
59367;BME280;45163;47.690;11.770;2024-01-11T04:00:00;93871.63;;;-8.52;100.00
59367;BME280;45163;47.690;11.770;2024-01-11T04:02:26;93871.25;;;-8.60;100.00
59367;BME280;45163;47.690;11.770;2024-01-11T04:04:52;93874.91;;;-8.69;100.00
59367;BME280;45163;47.690;11.770;2024-01-11T04:07:19;93875.47;;;-8.59;100.00
59367;BME280;45163;47.690;11.770;2024-01-11T04:09:45;93869.31;;;-8.45;100.00
59367;BME280;45163;47.690;11.770;2024-01-11T04:12:11;93878.22;;;-8.41;100.00
59367;BME280;45163;47.690;11.770;2024-01-11T04:14:38;93877.13;;;-8.40;100.00
59367;BME280;45163;47.690;11.770;2024-01-11T04:17:05;93868.41;;;-8.41;100.00
59367;BME280;45163;47.690;11.770;2024-01-11T04:19:31;93869.84;;;-8.35;100.00
59367;BME280;45163;47.690;11.770;2024-01-11T04:21:58;93862.38;;;-8.33;100.00
59367;BME280;45163;47.690;11.770;2024-01-11T04:24:24;93862.69;;;-8.34;100.00
59367;BME280;45163;47.690;11.770;2024-01-11T04:26:50;93857.44;;;-8.25;100.00
59367;BME280;45163;47.690;11.770;2024-01-11T04:29:16;93866.28;;;-8.30;100.00
59367;BME280;45163;47.690;11.770;2024-01-11T04:31:42;93865.34;;;-8.34;100.00
59367;BME280;45163;47.690;11.770;2024-01-11T04:34:08;93861.78;;;-8.30;100.00
59367;BME280;45163;47.690;11.770;2024-01-11T04:36:37;93856.47;;;-8.30;100.00
59367;BME280;45163;47.690;11.770;2024-01-11T04:39:03;93855.69;;;-8.30;100.00
59367;BME280;45163;47.690;11.770;2024-01-11T04:41:29;93860.47;;;-8.41;100.00
59367;BME280;45163;47.690;11.770;2024-01-11T04:43:55;93862.94;;;-8.44;100.00
59367;BME280;45163;47.690;11.770;2024-01-11T04:46:22;93862.28;;;-8.50;100.00
59367;BME280;45163;47.690;11.770;2024-01-11T04:48:49;93854.34;;;-8.50;100.00
59367;BME280;45163;47.690;11.770;2024-01-11T04:51:16;93861.34;;;-8.54;100.00
59367;BME280;45163;47.690;11.770;2024-01-11T04:53:44;93858.56;;;-8.49;100.00
59367;BME280;45163;47.690;11.770;2024-01-11T04:56:13;93859.91;;;-8.60;100.00
59367;BME280;45163;47.690;11.770;2024-01-11T04:58:40;93863.06;;;-8.49;100.00
59367;BME280;45163;47.690;11.770;2024-01-11T05:01:07;93854.66;;;-8.51;100.00
59367;BME280;45163;47.690;11.770;2024-01-11T05:03:33;93857.25;;;-8.60;100.00
59367;BME280;45163;47.690;11.770;2024-01-11T05:05:59;93853.75;;;-8.69;100.00
59367;BME280;45163;47.690;11.770;2024-01-11T05:08:26;93855.19;;;-8.63;100.00
59367;BME280;45163;47.690;11.770;2024-01-11T05:10:52;93864.81;;;-8.67;100.00
59367;BME280;45163;47.690;11.770;2024-01-11T05:13:18;93853.94;;;-8.66;100.00
59367;BME280;45163;47.690;11.770;2024-01-11T05:15:44;93846.34;;;-8.59;100.00
59367;BME280;45163;47.690;11.770;2024-01-11T05:18:11;93849.66;;;-8.53;100.00
59367;BME280;45163;47.690;11.770;2024-01-11T05:20:37;93852.94;;;-8.56;100.00
59367;BME280;45163;47.690;11.770;2024-01-11T05:23:03;93859.13;;;-8.61;100.00
59367;BME280;45163;47.690;11.770;2024-01-11T05:25:30;93867.66;;;-8.64;100.00
59367;BME280;45163;47.690;11.770;2024-01-11T05:28:03;93855.25;;;-8.77;100.00
59367;BME280;45163;47.690;11.770;2024-01-11T05:30:30;93861.09;;;-8.66;100.00
59367;BME280;45163;47.690;11.770;2024-01-11T05:32:56;93865.53;;;-8.75;100.00
59367;BME280;45163;47.690;11.770;2024-01-11T05:35:22;93865.59;;;-8.67;100.00
59367;BME280;45163;47.690;11.770;2024-01-11T05:37:53;93873.53;;;-8.67;100.00
59367;BME280;45163;47.690;11.770;2024-01-11T05:40:20;93874.50;;;-8.63;100.00
59367;BME280;45163;47.690;11.770;2024-01-11T05:42:47;93872.03;;;-8.59;100.00
59367;BME280;45163;47.690;11.770;2024-01-11T05:45:13;93876.50;;;-8.68;100.00
59367;BME280;45163;47.690;11.770;2024-01-11T05:47:43;93879.72;;;-8.71;100.00
59367;BME280;45163;47.690;11.770;2024-01-11T05:50:10;93879.00;;;-8.86;100.00
59367;BME280;45163;47.690;11.770;2024-01-11T05:52:37;93878.88;;;-8.81;100.00
59367;BME280;45163;47.690;11.770;2024-01-11T05:55:03;93878.44;;;-8.74;100.00
59367;BME280;45163;47.690;11.770;2024-01-11T05:57:29;93874.19;;;-8.84;100.00
59367;BME280;45163;47.690;11.770;2024-01-11T05:59:55;93877.78;;;-8.80;100.00
59367;BME280;45163;47.690;11.770;2024-01-11T06:02:21;93883.59;;;-8.77;100.00
59367;BME280;45163;47.690;11.770;2024-01-11T06:04:48;93886.13;;;-8.86;100.00
59367;BME280;45163;47.690;11.770;2024-01-11T06:07:15;93884.38;;;-8.91;100.00
59367;BME280;45163;47.690;11.770;2024-01-11T06:09:41;93889.78;;;-8.96;100.00
59367;BME280;45163;47.690;11.770;2024-01-11T06:12:07;93899.28;;;-8.95;100.00
59367;BME280;45163;47.690;11.770;2024-01-11T06:14:34;93898.63;;;-9.00;100.00
59367;BME280;45163;47.690;11.770;2024-01-11T06:17:00;93905.97;;;-8.97;100.00
59367;BME280;45163;47.690;11.770;2024-01-11T06:19:26;93904.81;;;-9.05;100.00
59367;BME280;45163;47.690;11.770;2024-01-11T06:21:52;93912.94;;;-9.01;100.00
59367;BME280;45163;47.690;11.770;2024-01-11T06:24:18;93911.66;;;-9.04;100.00
59367;BME280;45163;47.690;11.770;2024-01-11T06:26:44;93910.06;;;-8.91;100.00
59367;BME280;45163;47.690;11.770;2024-01-11T06:29:10;93925.91;;;-8.91;100.00
59367;BME280;45163;47.690;11.770;2024-01-11T06:31:36;93931.38;;;-8.74;100.00
59367;BME280;45163;47.690;11.770;2024-01-11T06:34:03;93935.13;;;-8.30;100.00
59367;BME280;45163;47.690;11.770;2024-01-11T06:36:30;93931.59;;;-7.94;100.00
59367;BME280;45163;47.690;11.770;2024-01-11T06:38:56;93946.59;;;-7.59;100.00
59367;BME280;45163;47.690;11.770;2024-01-11T06:41:22;93951.22;;;-7.42;100.00
59367;BME280;45163;47.690;11.770;2024-01-11T06:43:47;93950.97;;;-7.23;100.00
59367;BME280;45163;47.690;11.770;2024-01-11T06:46:19;93958.22;;;-7.06;100.00
59367;BME280;45163;47.690;11.770;2024-01-11T06:48:46;93954.63;;;-7.02;100.00
59367;BME280;45163;47.690;11.770;2024-01-11T06:51:15;93957.63;;;-6.86;100.00
59367;BME280;45163;47.690;11.770;2024-01-11T06:53:42;93960.00;;;-6.75;100.00
59367;BME280;45163;47.690;11.770;2024-01-11T06:56:18;93956.84;;;-6.78;100.00
59367;BME280;45163;47.690;11.770;2024-01-11T06:58:46;93956.84;;;-6.78;100.00
59367;BME280;45163;47.690;11.770;2024-01-11T07:01:12;93958.13;;;-6.66;100.00
59367;BME280;45163;47.690;11.770;2024-01-11T07:03:38;93949.25;;;-6.53;100.00
59367;BME280;45163;47.690;11.770;2024-01-11T07:06:05;93949.41;;;-6.49;100.00
59367;BME280;45163;47.690;11.770;2024-01-11T07:08:32;93948.63;;;-6.50;100.00
59367;BME280;45163;47.690;11.770;2024-01-11T07:11:02;93954.25;;;-6.52;100.00
59367;BME280;45163;47.690;11.770;2024-01-11T07:13:31;93958.91;;;-6.57;100.00
59367;BME280;45163;47.690;11.770;2024-01-11T07:15:58;93961.28;;;-6.64;100.00
59367;BME280;45163;47.690;11.770;2024-01-11T07:18:25;93960.94;;;-6.71;100.00
59367;BME280;45163;47.690;11.770;2024-01-11T07:20:52;93960.31;;;-6.77;100.00
59367;BME280;45163;47.690;11.770;2024-01-11T07:23:18;93960.31;;;-6.77;100.00
59367;BME280;45163;47.690;11.770;2024-01-11T07:25:44;93961.69;;;-6.88;100.00
59367;BME280;45163;47.690;11.770;2024-01-11T07:28:10;93956.53;;;-6.93;100.00
59367;BME280;45163;47.690;11.770;2024-01-11T07:30:36;93956.19;;;-7.00;100.00
59367;BME280;45163;47.690;11.770;2024-01-11T07:33:02;93968.00;;;-7.15;100.00
59367;BME280;45163;47.690;11.770;2024-01-11T07:35:30;93968.75;;;-7.15;100.00
59367;BME280;45163;47.690;11.770;2024-01-11T07:37:57;93967.97;;;-7.24;100.00
59367;BME280;45163;47.690;11.770;2024-01-11T07:40:23;93970.00;;;-7.21;100.00
59367;BME280;45163;47.690;11.770;2024-01-11T07:42:49;93972.63;;;-7.30;100.00
59367;BME280;45163;47.690;11.770;2024-01-11T07:45:15;93976.53;;;-7.27;100.00
59367;BME280;45163;47.690;11.770;2024-01-11T07:47:42;93983.75;;;-7.19;100.00
59367;BME280;45163;47.690;11.770;2024-01-11T07:50:09;93982.84;;;-7.14;100.00
59367;BME280;45163;47.690;11.770;2024-01-11T07:52:38;93968.31;;;-7.17;100.00
59367;BME280;45163;47.690;11.770;2024-01-11T07:55:09;93974.22;;;-7.20;100.00
59367;BME280;45163;47.690;11.770;2024-01-11T07:57:37;93983.88;;;-7.24;100.00
59367;BME280;45163;47.690;11.770;2024-01-11T08:00:04;93990.75;;;-7.23;100.00
59367;BME280;45163;47.690;11.770;2024-01-11T08:02:33;93992.75;;;-7.29;100.00
59367;BME280;45163;47.690;11.770;2024-01-11T08:04:59;93994.97;;;-7.22;100.00
59367;BME280;45163;47.690;11.770;2024-01-11T08:07:28;93995.47;;;-7.11;100.00
59367;BME280;45163;47.690;11.770;2024-01-11T08:09:55;93994.47;;;-6.93;100.00
59367;BME280;45163;47.690;11.770;2024-01-11T08:12:21;94004.34;;;-6.76;100.00
59367;BME280;45163;47.690;11.770;2024-01-11T08:14:47;94009.69;;;-6.59;100.00
59367;BME280;45163;47.690;11.770;2024-01-11T08:17:14;94005.00;;;-6.44;100.00
59367;BME280;45163;47.690;11.770;2024-01-11T08:19:41;94019.13;;;-6.27;100.00
59367;BME280;45163;47.690;11.770;2024-01-11T08:22:09;94020.84;;;-6.22;100.00
59367;BME280;45163;47.690;11.770;2024-01-11T08:24:35;94020.34;;;-6.15;100.00
59367;BME280;45163;47.690;11.770;2024-01-11T08:27:01;94028.31;;;-6.15;100.00
59367;BME280;45163;47.690;11.770;2024-01-11T08:29:27;94026.31;;;-6.10;100.00
59367;BME280;45163;47.690;11.770;2024-01-11T08:31:54;94028.50;;;-6.03;100.00
59367;BME280;45163;47.690;11.770;2024-01-11T08:34:22;94013.31;;;-5.94;100.00
59367;BME280;45163;47.690;11.770;2024-01-11T08:36:49;94024.13;;;-5.99;100.00
59367;BME280;45163;47.690;11.770;2024-01-11T08:39:15;94020.34;;;-5.89;100.00
59367;BME280;45163;47.690;11.770;2024-01-11T08:41:41;94027.69;;;-5.86;100.00
59367;BME280;45163;47.690;11.770;2024-01-11T08:44:07;94020.81;;;-5.79;100.00
59367;BME280;45163;47.690;11.770;2024-01-11T08:46:33;94015.97;;;-5.68;100.00
59367;BME280;45163;47.690;11.770;2024-01-11T08:49:00;94009.69;;;-5.63;100.00
59367;BME280;45163;47.690;11.770;2024-01-11T08:51:29;94005.78;;;-5.83;100.00
59367;BME280;45163;47.690;11.770;2024-01-11T08:53:55;94012.25;;;-5.93;100.00
59367;BME280;45163;47.690;11.770;2024-01-11T08:56:22;94016.78;;;-5.93;100.00
59367;BME280;45163;47.690;11.770;2024-01-11T08:58:48;94020.69;;;-5.99;100.00
59367;BME280;45163;47.690;11.770;2024-01-11T09:01:15;94019.13;;;-6.00;100.00
59367;BME280;45163;47.690;11.770;2024-01-11T09:03:41;94031.28;;;-5.91;100.00
59367;BME280;45163;47.690;11.770;2024-01-11T09:06:07;94023.97;;;-6.11;100.00
59367;BME280;45163;47.690;11.770;2024-01-11T09:08:33;94028.31;;;-5.89;100.00
59367;BME280;45163;47.690;11.770;2024-01-11T09:10:59;94035.97;;;-5.62;100.00
59367;BME280;45163;47.690;11.770;2024-01-11T09:13:27;94027.09;;;-5.10;100.00
59367;BME280;45163;47.690;11.770;2024-01-11T09:15:54;94028.97;;;-4.64;100.00
59367;BME280;45163;47.690;11.770;2024-01-11T09:18:20;94033.00;;;-4.28;100.00
59367;BME280;45163;47.690;11.770;2024-01-11T09:20:47;94025.22;;;-3.70;100.00
59367;BME280;45163;47.690;11.770;2024-01-11T09:23:14;94025.78;;;-2.86;100.00
59367;BME280;45163;47.690;11.770;2024-01-11T09:25:41;94049.19;;;-2.34;100.00
59367;BME280;45163;47.690;11.770;2024-01-11T09:28:07;94042.00;;;-2.46;100.00
59367;BME280;45163;47.690;11.770;2024-01-11T09:30:33;94041.81;;;-1.88;100.00
59367;BME280;45163;47.690;11.770;2024-01-11T09:32:59;94047.06;;;-1.80;100.00
59367;BME280;45163;47.690;11.770;2024-01-11T09:35:25;94041.63;;;-1.55;100.00
59367;BME280;45163;47.690;11.770;2024-01-11T09:37:52;94038.19;;;-0.52;100.00
59367;BME280;45163;47.690;11.770;2024-01-11T09:40:18;94031.88;;;0.23;100.00
59367;BME280;45163;47.690;11.770;2024-01-11T09:42:45;94034.44;;;1.82;100.00
59367;BME280;45163;47.690;11.770;2024-01-11T09:45:15;94033.25;;;3.30;100.00
59367;BME280;45163;47.690;11.770;2024-01-11T09:47:45;94029.81;;;2.95;100.00
59367;BME280;45163;47.690;11.770;2024-01-11T09:50:13;94022.41;;;4.15;100.00
59367;BME280;45163;47.690;11.770;2024-01-11T09:52:48;94006.78;;;5.90;100.00
59367;BME280;45163;47.690;11.770;2024-01-11T09:55:15;94007.50;;;8.02;100.00
59367;BME280;45163;47.690;11.770;2024-01-11T09:57:44;93996.41;;;9.63;100.00
59367;BME280;45163;47.690;11.770;2024-01-11T10:00:13;93995.03;;;10.29;100.00
59367;BME280;45163;47.690;11.770;2024-01-11T10:02:42;93988.34;;;10.77;94.13
59367;BME280;45163;47.690;11.770;2024-01-11T10:05:08;93992.94;;;12.12;90.21
59367;BME280;45163;47.690;11.770;2024-01-11T10:07:34;93999.38;;;10.23;84.64
59367;BME280;45163;47.690;11.770;2024-01-11T10:10:00;94006.06;;;11.65;80.97
59367;BME280;45163;47.690;11.770;2024-01-11T10:12:29;94006.66;;;13.03;85.38
59367;BME280;45163;47.690;11.770;2024-01-11T10:14:55;94002.59;;;13.08;71.05
59367;BME280;45163;47.690;11.770;2024-01-11T10:17:30;93990.03;;;13.65;70.05
59367;BME280;45163;47.690;11.770;2024-01-11T10:19:56;93996.44;;;12.75;69.31
59367;BME280;45163;47.690;11.770;2024-01-11T10:22:24;93986.31;;;12.88;66.10
59367;BME280;45163;47.690;11.770;2024-01-11T10:24:50;93987.25;;;15.02;44.83
59367;BME280;45163;47.690;11.770;2024-01-11T10:27:16;93986.63;;;16.04;42.17
59367;BME280;45163;47.690;11.770;2024-01-11T10:29:42;93983.53;;;16.42;39.81
59367;BME280;45163;47.690;11.770;2024-01-11T10:32:09;93984.78;;;14.82;46.87
59367;BME280;45163;47.690;11.770;2024-01-11T10:34:35;93971.44;;;16.30;43.35
59367;BME280;45163;47.690;11.770;2024-01-11T10:37:05;93960.78;;;14.60;41.73
59367;BME280;45163;47.690;11.770;2024-01-11T10:39:34;93954.56;;;15.79;45.32
59367;BME280;45163;47.690;11.770;2024-01-11T10:42:06;93963.28;;;14.67;48.24
59367;BME280;45163;47.690;11.770;2024-01-11T10:44:34;93954.44;;;13.23;48.73
59367;BME280;45163;47.690;11.770;2024-01-11T10:47:03;93954.44;;;15.07;41.05
59367;BME280;45163;47.690;11.770;2024-01-11T10:49:33;93952.53;;;16.78;37.04
59367;BME280;45163;47.690;11.770;2024-01-11T10:52:00;93936.69;;;15.52;42.36
59367;BME280;45163;47.690;11.770;2024-01-11T10:54:28;93934.31;;;18.21;36.18
59367;BME280;45163;47.690;11.770;2024-01-11T10:56:58;93939.97;;;16.96;32.62
59367;BME280;45163;47.690;11.770;2024-01-11T10:59:27;93925.75;;;16.97;34.99
59367;BME280;45163;47.690;11.770;2024-01-11T11:01:53;93909.28;;;17.30;37.64
59367;BME280;45163;47.690;11.770;2024-01-11T11:04:22;93912.09;;;17.03;36.94
59367;BME280;45163;47.690;11.770;2024-01-11T11:06:54;93888.81;;;18.79;35.31
59367;BME280;45163;47.690;11.770;2024-01-11T11:09:21;93885.03;;;19.95;33.31
59367;BME280;45163;47.690;11.770;2024-01-11T11:11:49;93880.16;;;19.01;32.32
59367;BME280;45163;47.690;11.770;2024-01-11T11:14:15;93887.25;;;19.46;31.99
59367;BME280;45163;47.690;11.770;2024-01-11T11:16:42;93883.59;;;19.84;31.00
59367;BME280;45163;47.690;11.770;2024-01-11T11:19:10;93882.63;;;18.12;31.49
59367;BME280;45163;47.690;11.770;2024-01-11T11:21:44;93877.97;;;18.18;32.71
59367;BME280;45163;47.690;11.770;2024-01-11T11:24:12;93871.03;;;20.59;30.83
59367;BME280;45163;47.690;11.770;2024-01-11T11:26:38;93868.78;;;18.60;29.41
59367;BME280;45163;47.690;11.770;2024-01-11T11:29:04;93864.94;;;18.19;32.62
59367;BME280;45163;47.690;11.770;2024-01-11T11:31:41;93864.31;;;18.62;32.74
59367;BME280;45163;47.690;11.770;2024-01-11T11:34:13;93868.00;;;18.45;31.02
59367;BME280;45163;47.690;11.770;2024-01-11T11:36:40;93872.50;;;17.85;33.67
59367;BME280;45163;47.690;11.770;2024-01-11T11:39:13;93865.22;;;18.45;33.26
59367;BME280;45163;47.690;11.770;2024-01-11T11:41:39;93861.34;;;18.90;30.87
59367;BME280;45163;47.690;11.770;2024-01-11T11:44:06;93853.38;;;19.07;31.04
59367;BME280;45163;47.690;11.770;2024-01-11T11:46:32;93852.75;;;18.01;30.06
59367;BME280;45163;47.690;11.770;2024-01-11T11:48:59;93851.03;;;15.10;36.05
59367;BME280;45163;47.690;11.770;2024-01-11T11:51:25;93849.16;;;12.66;41.24
59367;BME280;45163;47.690;11.770;2024-01-11T11:53:52;93868.66;;;10.92;54.11
59367;BME280;45163;47.690;11.770;2024-01-11T11:56:20;93877.88;;;6.94;81.62
59367;BME280;45163;47.690;11.770;2024-01-11T11:58:47;93887.03;;;4.31;97.52
59367;BME280;45163;47.690;11.770;2024-01-11T12:01:14;93888.69;;;2.43;100.00
59367;BME280;45163;47.690;11.770;2024-01-11T12:03:42;93898.69;;;1.53;100.00
59367;BME280;45163;47.690;11.770;2024-01-11T12:06:13;93893.59;;;0.33;100.00
59367;BME280;45163;47.690;11.770;2024-01-11T12:08:44;93907.25;;;0.43;100.00
59367;BME280;45163;47.690;11.770;2024-01-11T12:11:19;93918.28;;;1.53;100.00
59367;BME280;45163;47.690;11.770;2024-01-11T12:13:47;93921.97;;;2.99;100.00
59367;BME280;45163;47.690;11.770;2024-01-11T12:16:13;93916.66;;;4.16;100.00
59367;BME280;45163;47.690;11.770;2024-01-11T12:18:40;93921.66;;;5.44;100.00
59367;BME280;45163;47.690;11.770;2024-01-11T12:21:07;93934.81;;;3.57;100.00
59367;BME280;45163;47.690;11.770;2024-01-11T12:23:34;93949.69;;;2.29;100.00
59367;BME280;45163;47.690;11.770;2024-01-11T12:26:01;93957.03;;;3.91;100.00
59367;BME280;45163;47.690;11.770;2024-01-11T12:28:31;93965.69;;;2.78;100.00
59367;BME280;45163;47.690;11.770;2024-01-11T12:30:57;93961.88;;;5.85;100.00
59367;BME280;45163;47.690;11.770;2024-01-11T12:33:25;93961.63;;;6.89;93.32
59367;BME280;45163;47.690;11.770;2024-01-11T12:35:51;93953.31;;;7.28;84.29
59367;BME280;45163;47.690;11.770;2024-01-11T12:38:18;93954.59;;;7.02;85.36
59367;BME280;45163;47.690;11.770;2024-01-11T12:40:45;93961.81;;;6.39;80.62